createdAt,value
2022-10-16T00:02:01.275Z,3.10
2022-10-16T00:04:27.928Z,3.60
2022-10-16T00:07:01.582Z,3.25
2022-10-16T00:09:28.212Z,3.60
2022-10-16T00:12:01.578Z,3.47
2022-10-16T00:14:34.588Z,3.50
2022-10-16T00:17:01.176Z,3.72
2022-10-16T00:19:41.568Z,3.63
2022-10-16T00:22:08.150Z,3.30
2022-10-16T00:24:34.739Z,3.65
2022-10-16T00:27:07.513Z,3.08
2022-10-16T00:29:34.132Z,3.92
2022-10-16T00:32:07.560Z,3.58
2022-10-16T00:34:34.131Z,3.55
2022-10-16T00:37:07.798Z,2.90
2022-10-16T00:39:34.406Z,3.50
2022-10-16T00:42:00.991Z,3.38
2022-10-16T00:44:55.516Z,3.58
2022-10-16T00:47:28.312Z,2.90
2022-10-16T00:50:17.572Z,3.22
2022-10-16T00:52:48.332Z,3.22
2022-10-16T00:55:21.581Z,2.88
2022-10-16T00:57:55.589Z,3.40
2022-10-16T01:00:32.600Z,3.10
2022-10-16T01:03:02.179Z,3.17
2022-10-16T01:05:45.603Z,3.22
2022-10-16T01:08:19.207Z,2.80
2022-10-16T01:11:08.564Z,3.35
2022-10-16T01:13:41.704Z,2.93
2022-10-16T01:16:27.525Z,3.50
2022-10-16T01:19:47.504Z,3.45
2022-10-16T01:22:21.576Z,3.25
2022-10-16T01:24:51.393Z,3.17
2022-10-16T01:27:34.530Z,3.20
2022-10-16T01:30:10.890Z,3.03
2022-10-16T01:32:54.528Z,2.80
2022-10-16T01:35:28.668Z,2.88
2022-10-16T01:38:13.513Z,2.90
2022-10-16T01:40:51.581Z,2.83
2022-10-16T01:43:32.523Z,2.90
2022-10-16T01:46:01.365Z,3.25
2022-10-16T01:48:34.568Z,3.38
2022-10-16T01:51:07.053Z,3.10
2022-10-16T01:53:40.589Z,2.97
2022-10-16T01:56:10.824Z,3.50
2022-10-16T02:01:18.551Z,3.08
2022-10-16T02:03:46.857Z,2.97
2022-10-16T02:06:20.601Z,3.10
2022-10-16T02:08:47.687Z,3.30
2022-10-16T02:11:20.593Z,2.92
2022-10-16T02:13:51.825Z,2.78
2022-10-16T02:16:18.769Z,3.25
2022-10-16T02:18:51.535Z,3.20
2022-10-16T02:21:35.580Z,2.97
2022-10-16T02:24:14.705Z,3.20
2022-10-16T02:26:51.584Z,2.70
2022-10-16T02:29:23.473Z,3.13
2022-10-16T02:32:01.593Z,2.88
2022-10-16T02:34:37.586Z,2.70
2022-10-16T02:37:06.014Z,2.67
2022-10-16T02:39:40.634Z,3.10
2022-10-16T02:42:14.752Z,3.03
2022-10-16T02:44:47.612Z,3.00
2022-10-16T02:47:14.332Z,2.65
2022-10-16T02:49:40.916Z,2.78
2022-10-16T02:52:13.602Z,2.30
2022-10-16T02:54:40.181Z,2.75
2022-10-16T02:57:13.633Z,2.40
2022-10-16T02:59:40.201Z,2.55
2022-10-16T03:02:13.569Z,2.72
2022-10-16T03:04:40.147Z,2.47
2022-10-16T03:07:13.577Z,2.38
2022-10-16T03:09:40.150Z,2.55
2022-10-16T03:12:13.544Z,2.67
2022-10-16T03:14:40.853Z,2.60
2022-10-16T03:17:07.503Z,2.38
2022-10-16T03:19:40.528Z,2.90
2022-10-16T03:22:13.581Z,2.28
2022-10-16T03:24:40.227Z,2.40
2022-10-16T03:27:06.930Z,3.00
2022-10-16T03:29:40.541Z,2.70
2022-10-16T03:32:13.537Z,2.28
2022-10-16T03:34:40.109Z,2.35
2022-10-16T03:37:13.581Z,2.58
2022-10-16T03:39:40.216Z,2.53
2022-10-16T03:42:13.593Z,2.55
2022-10-16T03:44:40.156Z,2.67
2022-10-16T03:47:06.737Z,2.50
2022-10-16T03:49:39.545Z,2.50
2022-10-16T03:52:06.222Z,2.80
2022-10-16T03:54:39.589Z,2.40
2022-10-16T03:57:06.194Z,2.58
2022-10-16T03:59:32.752Z,2.50
2022-10-16T04:02:05.553Z,2.20
2022-10-16T04:04:38.600Z,2.47
2022-10-16T04:07:05.651Z,2.60
2022-10-16T04:09:32.234Z,2.55
2022-10-16T04:12:05.602Z,2.28
2022-10-16T04:14:32.197Z,2.22
2022-10-16T04:16:58.779Z,2.78
2022-10-16T04:19:31.584Z,2.22
2022-10-16T04:22:04.608Z,2.42
2022-10-16T04:24:31.228Z,2.30
2022-10-16T04:27:04.519Z,2.75
2022-10-16T04:29:37.601Z,2.35
2022-10-16T04:32:04.210Z,2.30
2022-10-16T04:34:37.629Z,2.15
2022-10-16T04:37:04.234Z,2.17
2022-10-16T04:39:37.554Z,2.42
2022-10-16T04:42:04.215Z,2.20
2022-10-16T04:44:30.779Z,2.25
2022-10-16T04:47:03.534Z,2.30
2022-10-16T04:49:30.116Z,2.30
2022-10-16T04:52:03.546Z,2.08
2022-10-16T04:54:30.461Z,2.20
2022-10-16T04:56:57.129Z,2.20
2022-10-16T04:59:30.597Z,2.50
2022-10-16T05:02:03.552Z,2.05
2022-10-16T05:04:30.142Z,1.90
2022-10-16T05:06:56.722Z,2.50
2022-10-16T05:09:29.626Z,2.25
2022-10-16T05:11:56.236Z,2.13
2022-10-16T05:14:22.814Z,2.45
2022-10-16T05:16:56.621Z,1.88
2022-10-16T05:19:36.581Z,2.40
2022-10-16T05:22:10.563Z,2.00
2022-10-16T05:24:43.541Z,2.10
2022-10-16T05:27:11.772Z,2.08
2022-10-16T05:29:44.614Z,2.33
2022-10-16T05:32:11.206Z,2.35
2022-10-16T05:34:44.540Z,2.15
2022-10-16T05:37:12.469Z,1.88
2022-10-16T05:39:39.817Z,2.35
2022-10-16T05:42:13.590Z,2.30
2022-10-16T05:44:46.861Z,2.33
2022-10-16T05:47:15.018Z,2.05
2022-10-16T05:49:41.645Z,2.53
2022-10-16T05:52:14.632Z,2.65
2022-10-16T05:54:41.252Z,2.28
2022-10-16T05:57:14.583Z,2.50
2022-10-16T05:59:41.221Z,2.92
2022-10-16T06:02:13.393Z,2.72
2022-10-16T06:04:46.580Z,2.20
2022-10-16T06:07:19.546Z,2.70
2022-10-16T06:09:56.628Z,2.50
2022-10-16T06:12:23.233Z,2.65
2022-10-16T06:14:56.612Z,2.38
2022-10-16T06:17:23.297Z,2.53
2022-10-16T06:20:03.597Z,3.00
2022-10-16T06:22:36.557Z,3.35
2022-10-16T06:25:10.614Z,2.50
2022-10-16T06:27:43.603Z,2.38
2022-10-16T06:30:17.083Z,2.35
2022-10-16T06:32:50.584Z,2.58
2022-10-16T06:35:17.309Z,2.78
2022-10-16T06:37:50.562Z,2.30
2022-10-16T06:40:17.184Z,2.60
2022-10-16T06:42:50.708Z,2.85
2022-10-16T06:45:17.293Z,3.17
2022-10-16T06:47:50.548Z,3.60
2022-10-16T06:50:17.227Z,3.30
2022-10-16T06:52:43.836Z,4.40
2022-10-16T06:55:16.567Z,3.55
2022-10-16T06:57:43.264Z,3.20
2022-10-16T07:00:16.601Z,3.10
2022-10-16T07:02:43.209Z,3.92
2022-10-16T07:05:16.561Z,3.05
2022-10-16T07:07:43.124Z,2.83
2022-10-16T07:10:09.836Z,3.13
2022-10-16T07:12:42.602Z,2.97
2022-10-16T07:15:16.657Z,2.97
2022-10-16T07:17:49.634Z,2.92
2022-10-16T07:20:29.669Z,2.50
2022-10-16T07:22:56.232Z,2.58
2022-10-16T07:25:22.837Z,2.50
2022-10-16T07:27:55.604Z,2.25
2022-10-16T07:30:28.684Z,2.50
2022-10-16T07:32:55.277Z,2.72
2022-10-16T07:35:28.546Z,2.03
2022-10-16T07:37:55.196Z,2.00
2022-10-16T07:40:22.326Z,2.50
2022-10-16T07:42:55.553Z,1.98
2022-10-16T07:45:22.127Z,2.25
2022-10-16T07:47:55.544Z,1.88
2022-10-16T07:50:28.645Z,1.67
2022-10-16T07:53:01.552Z,1.88
2022-10-16T07:55:34.536Z,1.90
2022-10-16T07:58:01.266Z,1.77
2022-10-16T08:00:27.934Z,1.92
2022-10-16T08:03:07.540Z,1.60
2022-10-16T08:05:41.601Z,1.60
2022-10-16T08:08:12.313Z,1.58
2022-10-16T08:10:45.662Z,1.80
2022-10-16T08:13:13.660Z,1.80
2022-10-16T08:15:40.242Z,1.70
2022-10-16T08:18:13.621Z,1.60
2022-10-16T08:20:46.973Z,1.90
2022-10-16T08:23:20.647Z,2.58
2022-10-16T08:25:53.572Z,1.58
2022-10-16T08:28:20.261Z,1.80
2022-10-16T08:30:53.566Z,1.90
2022-10-16T08:33:20.180Z,1.70
2022-10-16T08:36:01.652Z,1.48
2022-10-16T08:38:28.245Z,1.67
2022-10-16T08:41:16.612Z,1.92
2022-10-16T08:44:09.033Z,2.88
2022-10-16T08:47:08.591Z,9.27
2022-10-16T08:49:35.531Z,6.03
2022-10-16T08:52:02.297Z,6.05
2022-10-16T08:54:54.675Z,2.38
2022-10-16T08:57:29.552Z,3.13
2022-10-16T09:00:12.815Z,2.10
2022-10-16T09:03:00.577Z,2.00
2022-10-16T09:05:53.567Z,1.42
2022-10-16T09:08:54.929Z,1.40
2022-10-16T09:11:30.630Z,15.73
2022-10-16T09:14:24.388Z,13.60
2022-10-16T09:17:05.633Z,25.52
2022-10-16T09:19:46.520Z,4.10
2022-10-16T09:22:32.634Z,3.88
2022-10-16T09:25:12.204Z,5.53
2022-10-16T09:27:45.560Z,2.13
2022-10-16T09:30:18.498Z,1.05
2022-10-16T09:32:53.621Z,1.52
2022-10-16T09:35:47.617Z,2.15
2022-10-16T09:38:38.650Z,4.03
2022-10-16T09:41:15.628Z,3.00
2022-10-16T09:43:55.570Z,5.70
2022-10-16T09:46:45.649Z,2.20
2022-10-16T09:49:26.669Z,1.13
2022-10-16T09:52:18.626Z,1.20
2022-10-16T09:54:58.623Z,1.17
2022-10-16T09:57:32.639Z,1.20
2022-10-16T09:59:59.928Z,1.50
2022-10-16T10:02:44.678Z,1.25
2022-10-16T10:05:40.974Z,1.20
2022-10-16T10:08:15.654Z,1.38
2022-10-16T10:10:50.781Z,1.10
2022-10-16T10:13:28.585Z,1.30
2022-10-16T10:16:01.625Z,1.00
2022-10-16T10:18:28.233Z,0.80
2022-10-16T10:21:09.656Z,1.00
2022-10-16T10:23:36.301Z,0.90
2022-10-16T10:26:02.868Z,0.90
2022-10-16T10:29:01.689Z,1.08
2022-10-16T10:32:10.454Z,1.25
2022-10-16T10:34:58.651Z,0.90
2022-10-16T10:37:34.619Z,1.40
2022-10-16T10:40:23.574Z,1.35
2022-10-16T10:43:04.196Z,1.10
2022-10-16T10:45:50.577Z,1.40
2022-10-16T10:48:53.612Z,1.85
2022-10-16T10:51:37.559Z,2.05
2022-10-16T10:54:32.576Z,1.63
2022-10-16T10:57:07.845Z,1.10
2022-10-16T11:00:29.605Z,0.95
2022-10-16T11:03:26.286Z,0.90
2022-10-16T11:06:05.635Z,0.88
2022-10-16T11:08:42.030Z,0.90
2022-10-16T11:11:32.562Z,0.80
2022-10-16T11:14:11.726Z,1.00
2022-10-16T11:17:04.904Z,0.90
2022-10-16T11:20:17.580Z,0.90
2022-10-16T11:22:57.623Z,0.80
2022-10-16T11:25:39.578Z,1.00
2022-10-16T11:28:17.324Z,0.82
2022-10-16T11:30:53.550Z,0.90
2022-10-16T11:33:25.690Z,1.05
2022-10-16T11:36:19.551Z,0.95
2022-10-16T11:39:25.449Z,1.10
2022-10-16T11:42:03.573Z,1.17
2022-10-16T11:45:06.648Z,1.25
2022-10-16T11:48:00.311Z,0.73
2022-10-16T11:50:46.637Z,0.93
2022-10-16T11:54:01.625Z,0.68
2022-10-16T11:56:36.617Z,0.73
2022-10-16T11:59:09.245Z,0.90
2022-10-16T12:01:56.583Z,0.52
2022-10-16T12:04:47.209Z,0.70
2022-10-16T12:07:26.646Z,0.70
2022-10-16T12:09:53.275Z,0.80
2022-10-16T12:12:37.187Z,0.68
2022-10-16T12:15:58.269Z,1.08
2022-10-16T12:18:31.585Z,0.60
2022-10-16T12:21:14.435Z,0.70
2022-10-16T12:24:02.650Z,0.55
2022-10-16T12:26:33.030Z,0.75
2022-10-16T12:29:30.625Z,0.77
2022-10-16T12:32:03.592Z,0.73
2022-10-16T12:34:41.303Z,0.80
2022-10-16T12:37:27.652Z,0.70
2022-10-16T12:39:56.678Z,0.60
2022-10-16T12:42:35.571Z,0.63
2022-10-16T12:45:14.016Z,0.98
2022-10-16T12:47:56.622Z,0.60
2022-10-16T12:50:38.425Z,0.95
2022-10-16T12:53:31.650Z,1.30
2022-10-16T12:56:05.473Z,0.90
2022-10-16T12:58:59.622Z,0.70
2022-10-16T13:01:54.867Z,0.70
2022-10-16T13:04:57.631Z,0.80
2022-10-16T13:07:55.645Z,0.77
2022-10-16T13:11:01.645Z,0.50
2022-10-16T13:14:01.569Z,0.80
2022-10-16T13:16:41.694Z,0.43
2022-10-16T13:22:23.546Z,0.40
2022-10-16T13:25:22.590Z,0.52
2022-10-16T13:28:15.561Z,0.50
2022-10-16T13:30:59.589Z,0.70
2022-10-16T13:33:40.547Z,0.63
2022-10-16T13:36:14.573Z,0.40
2022-10-16T13:38:47.621Z,0.68
2022-10-16T13:41:25.598Z,0.60
2022-10-16T13:44:01.592Z,0.50
2022-10-16T13:46:34.583Z,0.65
2022-10-16T13:49:21.431Z,0.95
2022-10-16T13:52:05.683Z,0.88
2022-10-16T13:54:32.372Z,0.55
2022-10-16T13:57:26.633Z,0.60
2022-10-16T14:00:01.628Z,0.65
2022-10-16T14:02:42.594Z,0.52
2022-10-16T14:05:11.683Z,0.45
2022-10-16T14:07:45.673Z,0.60
2022-10-16T14:10:28.798Z,0.45
2022-10-16T14:13:09.682Z,0.70
2022-10-16T14:15:38.031Z,0.70
2022-10-16T14:18:05.134Z,0.60
2022-10-16T14:20:40.587Z,0.95
2022-10-16T14:23:36.645Z,0.77
2022-10-16T14:26:24.581Z,0.90
2022-10-16T14:29:11.013Z,0.65
2022-10-16T14:31:44.654Z,0.63
2022-10-16T14:34:33.833Z,0.80
2022-10-16T14:37:25.205Z,0.60
2022-10-16T14:39:55.616Z,0.75
2022-10-16T14:42:31.630Z,0.80
2022-10-16T14:45:05.586Z,0.65
2022-10-16T14:47:32.589Z,0.73
2022-10-16T14:50:06.620Z,0.60
2022-10-16T14:52:33.233Z,0.73
2022-10-16T14:54:59.897Z,1.38
2022-10-16T14:57:38.639Z,0.90
2022-10-16T15:00:16.074Z,0.80
2022-10-16T15:02:49.584Z,0.75
2022-10-16T15:05:26.581Z,0.82
2022-10-16T15:07:55.792Z,0.90
2022-10-16T15:10:24.690Z,0.73
2022-10-16T15:12:57.603Z,0.70
2022-10-16T15:15:24.200Z,0.98
2022-10-16T15:18:00.686Z,0.90
2022-10-16T15:20:49.575Z,1.67
2022-10-16T15:25:58.419Z,0.95
2022-10-16T15:28:33.628Z,1.05
2022-10-16T15:31:06.630Z,0.90
2022-10-16T15:33:42.604Z,1.85
2022-10-16T15:36:09.344Z,6.60
2022-10-16T15:38:42.612Z,9.30
2022-10-16T15:41:09.182Z,5.10
2022-10-16T15:43:35.783Z,2.42
2022-10-16T15:46:10.686Z,2.13
2022-10-16T15:48:37.348Z,2.13
2022-10-16T15:51:15.618Z,1.60
2022-10-16T15:53:42.888Z,1.58
2022-10-16T15:56:18.694Z,1.63
2022-10-16T15:58:45.342Z,1.50
2022-10-16T16:01:18.662Z,1.35
2022-10-16T16:03:51.597Z,1.48
2022-10-16T16:06:18.230Z,1.80
2022-10-16T16:08:44.937Z,2.45
2022-10-16T16:11:20.680Z,1.60
2022-10-16T16:13:53.610Z,1.38
2022-10-16T16:16:21.103Z,1.48
2022-10-16T16:18:49.552Z,1.20
2022-10-16T16:21:22.609Z,1.30
2022-10-16T16:23:55.670Z,1.45
2022-10-16T16:26:50.623Z,1.27
2022-10-16T16:29:17.726Z,1.60
2022-10-16T16:31:57.674Z,1.60
2022-10-16T16:34:32.637Z,1.50
2022-10-16T16:36:59.261Z,1.88
2022-10-16T16:39:32.643Z,1.80
2022-10-16T16:42:10.620Z,2.28
2022-10-16T16:44:44.726Z,1.92
2022-10-16T16:47:11.437Z,2.03
2022-10-16T16:49:38.033Z,2.17
2022-10-16T16:52:11.710Z,2.28
2022-10-16T16:54:44.723Z,2.72
2022-10-16T16:57:17.790Z,2.60
2022-10-16T16:59:44.393Z,3.35
2022-10-16T17:02:17.644Z,3.20
2022-10-16T17:04:44.264Z,3.53
2022-10-16T17:07:19.563Z,3.60
2022-10-16T17:09:48.543Z,3.72
2022-10-16T17:12:28.609Z,4.05
2022-10-16T17:14:55.231Z,3.80
2022-10-16T17:17:21.810Z,4.45
2022-10-16T17:19:57.619Z,4.03
2022-10-16T17:22:30.790Z,4.47
2022-10-16T17:24:57.498Z,5.22
2022-10-16T17:27:30.609Z,6.22
2022-10-16T17:29:57.310Z,6.90
2022-10-16T17:32:30.902Z,6.13
2022-10-16T17:34:57.614Z,5.90
2022-10-16T17:37:24.323Z,6.13
2022-10-16T17:39:58.629Z,6.30
2022-10-16T17:42:25.470Z,6.38
2022-10-16T17:44:52.237Z,5.57
2022-10-16T17:47:25.716Z,6.45
2022-10-16T17:49:52.301Z,6.10
2022-10-16T17:52:25.831Z,6.82
2022-10-16T17:54:53.030Z,8.68
2022-10-16T17:57:19.760Z,8.65
2022-10-16T17:59:54.758Z,8.02
2022-10-16T18:02:22.031Z,7.47
2022-10-16T18:04:51.048Z,7.18
2022-10-16T18:07:24.669Z,6.85
2022-10-16T18:10:10.682Z,6.05
2022-10-16T18:12:44.681Z,5.88
2022-10-16T18:15:11.457Z,5.28
2022-10-16T18:17:44.610Z,5.43
2022-10-16T18:20:24.676Z,5.65
2022-10-16T18:22:58.597Z,5.10
2022-10-16T18:25:31.602Z,4.75
2022-10-16T18:27:58.222Z,5.03
2022-10-16T18:30:31.613Z,5.00
2022-10-16T18:32:58.289Z,4.60
2022-10-16T18:35:31.692Z,4.32
2022-10-16T18:38:00.585Z,4.50
2022-10-16T18:40:33.641Z,5.20
2022-10-16T18:43:00.212Z,5.22
2022-10-16T18:45:34.613Z,5.68
2022-10-16T18:48:01.206Z,5.60
2022-10-16T18:50:34.626Z,7.95
2022-10-16T18:53:01.217Z,9.75
2022-10-16T18:55:30.901Z,9.70
2022-10-16T18:58:04.590Z,14.50
2022-10-16T19:00:37.629Z,12.85
2022-10-16T19:03:04.200Z,11.38
2022-10-16T19:05:40.609Z,9.82
2022-10-16T19:08:08.004Z,8.25
2022-10-16T19:10:37.329Z,5.35
2022-10-16T19:13:11.156Z,6.43
2022-10-16T19:15:46.822Z,6.50
2022-10-16T19:18:27.607Z,6.30
2022-10-16T19:21:01.714Z,5.75
2022-10-16T19:23:34.610Z,6.07
2022-10-16T19:26:13.014Z,6.07
2022-10-16T19:28:47.667Z,5.90
2022-10-16T19:31:20.727Z,5.65
2022-10-16T19:33:57.634Z,5.80
2022-10-16T19:36:27.178Z,6.30
2022-10-16T19:39:06.650Z,5.43
2022-10-16T19:41:33.757Z,5.55
2022-10-16T19:44:12.609Z,5.75
2022-10-16T19:46:45.630Z,5.72
2022-10-16T19:49:16.823Z,7.05
2022-10-16T19:51:52.607Z,7.30
2022-10-16T19:54:25.621Z,7.30
2022-10-16T19:56:52.250Z,6.65
2022-10-16T19:59:25.624Z,6.30
2022-10-16T20:01:52.233Z,7.25
2022-10-16T20:04:25.601Z,7.07
2022-10-16T20:06:58.767Z,7.70
2022-10-16T20:09:25.388Z,6.47
2022-10-16T20:11:58.629Z,7.55
2022-10-16T20:14:25.220Z,6.57
2022-10-16T20:16:59.674Z,6.55
2022-10-16T20:19:26.302Z,6.80
2022-10-16T20:22:05.630Z,6.88
2022-10-16T20:24:38.600Z,7.23
2022-10-16T20:27:11.611Z,7.03
2022-10-16T20:29:38.534Z,6.68
2022-10-16T20:32:11.626Z,7.18
2022-10-16T20:37:05.689Z,7.22
2022-10-16T20:39:38.630Z,6.38
2022-10-16T20:42:05.227Z,7.25
2022-10-16T20:44:38.642Z,7.10
2022-10-16T20:47:05.223Z,7.38
2022-10-16T20:49:40.979Z,10.85
2022-10-16T20:52:07.833Z,11.10
2022-10-16T20:54:34.457Z,9.82
2022-10-16T20:57:07.604Z,9.32
2022-10-16T20:59:34.232Z,10.80
2022-10-16T21:02:11.986Z,9.15
2022-10-16T21:04:47.630Z,9.55
2022-10-16T21:07:14.317Z,9.90
2022-10-16T21:09:47.608Z,9.32
2022-10-16T21:12:14.222Z,10.10
2022-10-16T21:15:12.853Z,8.48
2022-10-16T21:17:34.233Z,8.93
2022-10-16T21:20:07.639Z,8.77
2022-10-16T21:22:40.623Z,8.20
2022-10-16T21:25:20.628Z,9.68
2022-10-16T21:27:47.402Z,8.30
2022-10-16T21:30:13.986Z,8.23
2022-10-16T21:32:47.617Z,8.30
2022-10-16T21:35:20.677Z,8.70
2022-10-16T21:37:50.286Z,9.18
2022-10-16T21:40:23.627Z,8.95
2022-10-16T21:42:50.221Z,7.80
2022-10-16T21:45:16.811Z,7.68
2022-10-16T21:47:49.647Z,9.00
2022-10-16T21:50:16.398Z,10.15
2022-10-16T21:52:49.629Z,10.40
2022-10-16T21:55:16.318Z,9.43
2022-10-16T21:57:49.628Z,10.82
2022-10-16T22:00:16.320Z,10.02
2022-10-16T22:02:49.695Z,9.43
2022-10-16T22:05:16.304Z,10.55
2022-10-16T22:07:49.645Z,9.57
2022-10-16T22:10:16.356Z,9.30
2022-10-16T22:12:42.948Z,8.73
2022-10-16T22:15:16.675Z,9.18
2022-10-16T22:17:43.256Z,10.13
2022-10-16T22:20:16.630Z,9.10
2022-10-16T22:22:56.642Z,9.45
2022-10-16T22:25:23.220Z,8.70
2022-10-16T22:27:49.824Z,9.48
2022-10-16T22:30:22.669Z,9.25
2022-10-16T22:32:49.241Z,9.32
2022-10-16T22:35:15.805Z,9.73
2022-10-16T22:37:48.632Z,9.05
2022-10-16T22:40:15.237Z,8.70
2022-10-16T22:45:20.106Z,7.55
2022-10-16T22:47:53.868Z,8.43
2022-10-16T22:50:20.518Z,7.93
2022-10-16T22:52:53.683Z,8.18
2022-10-16T22:55:20.518Z,8.25
2022-10-16T22:57:53.621Z,7.88
2022-10-16T23:00:27.665Z,7.47
2022-10-16T23:02:55.212Z,7.70
2022-10-16T23:05:28.681Z,7.53
2022-10-16T23:07:55.248Z,7.78
2022-10-16T23:10:33.616Z,7.55
2022-10-16T23:13:00.226Z,7.93
2022-10-16T23:15:34.684Z,7.18
2022-10-16T23:18:01.301Z,7.35
2022-10-16T23:20:47.717Z,7.85
2022-10-16T23:23:14.302Z,7.10
2022-10-16T23:25:47.043Z,6.63
2022-10-16T23:28:21.651Z,7.30
2022-10-16T23:30:48.280Z,6.45
2022-10-16T23:33:14.855Z,6.80
2022-10-16T23:35:48.893Z,7.53
2022-10-16T23:38:15.464Z,7.28
2022-10-16T23:40:48.706Z,6.63
2022-10-16T23:43:21.694Z,6.88
2022-10-16T23:45:54.660Z,6.88
2022-10-16T23:48:21.308Z,7.55
2022-10-16T23:50:47.947Z,7.57
2022-10-16T23:53:21.680Z,6.72
2022-10-16T23:55:54.662Z,7.20
2022-10-16T23:58:28.681Z,6.88
